sensor_id;sensor_type;location;lat;lon;timestamp;temperature;humidity
25945;SHT31;13742;49.306;8.636;2023-06-24T00:00:19;22.12;57.28
25945;SHT31;13742;49.306;8.636;2023-06-24T00:01:19;22.12;57.08
25945;SHT31;13742;49.306;8.636;2023-06-24T00:02:18;22.08;57.55
25945;SHT31;13742;49.306;8.636;2023-06-24T00:03:18;22.07;57.25
25945;SHT31;13742;49.306;8.636;2023-06-24T00:04:19;22.05;57.57
25945;SHT31;13742;49.306;8.636;2023-06-24T00:05:18;22.04;57.87
25945;SHT31;13742;49.306;8.636;2023-06-24T00:06:19;22.02;57.75
25945;SHT31;13742;49.306;8.636;2023-06-24T00:07:22;22.01;57.60
25945;SHT31;13742;49.306;8.636;2023-06-24T00:08:22;22.01;57.72
25945;SHT31;13742;49.306;8.636;2023-06-24T00:09:18;21.98;57.50
25945;SHT31;13742;49.306;8.636;2023-06-24T00:10:18;21.95;57.81
25945;SHT31;13742;49.306;8.636;2023-06-24T00:11:18;21.95;57.85
25945;SHT31;13742;49.306;8.636;2023-06-24T00:12:19;21.95;57.81
25945;SHT31;13742;49.306;8.636;2023-06-24T00:13:18;21.93;57.79
25945;SHT31;13742;49.306;8.636;2023-06-24T00:14:19;21.93;57.49
25945;SHT31;13742;49.306;8.636;2023-06-24T00:15:18;21.90;58.42
25945;SHT31;13742;49.306;8.636;2023-06-24T00:16:26;21.90;57.66
25945;SHT31;13742;49.306;8.636;2023-06-24T00:17:18;21.88;57.85
25945;SHT31;13742;49.306;8.636;2023-06-24T00:18:18;21.87;57.90
25945;SHT31;13742;49.306;8.636;2023-06-24T00:19:19;21.88;57.96
25945;SHT31;13742;49.306;8.636;2023-06-24T00:20:20;21.85;58.47
25945;SHT31;13742;49.306;8.636;2023-06-24T00:21:19;21.85;58.45
25945;SHT31;13742;49.306;8.636;2023-06-24T00:22:18;21.85;58.04
25945;SHT31;13742;49.306;8.636;2023-06-24T00:23:22;21.82;58.56
25945;SHT31;13742;49.306;8.636;2023-06-24T00:24:20;21.82;57.97
25945;SHT31;13742;49.306;8.636;2023-06-24T00:25:18;21.81;57.87
25945;SHT31;13742;49.306;8.636;2023-06-24T00:26:18;21.84;58.57
25945;SHT31;13742;49.306;8.636;2023-06-24T00:27:18;21.82;58.87
25945;SHT31;13742;49.306;8.636;2023-06-24T00:28:18;21.81;58.68
25945;SHT31;13742;49.306;8.636;2023-06-24T00:29:18;21.81;58.84
25945;SHT31;13742;49.306;8.636;2023-06-24T00:30:18;21.75;58.13
25945;SHT31;13742;49.306;8.636;2023-06-24T00:31:19;21.77;58.50
25945;SHT31;13742;49.306;8.636;2023-06-24T00:32:18;21.74;58.33
25945;SHT31;13742;49.306;8.636;2023-06-24T00:33:20;21.74;58.60
25945;SHT31;13742;49.306;8.636;2023-06-24T00:34:20;21.74;58.20
25945;SHT31;13742;49.306;8.636;2023-06-24T00:35:18;21.74;58.49
25945;SHT31;13742;49.306;8.636;2023-06-24T00:36:18;21.74;58.87
25945;SHT31;13742;49.306;8.636;2023-06-24T00:37:18;21.71;58.76
25945;SHT31;13742;49.306;8.636;2023-06-24T00:38:18;21.71;58.45
25945;SHT31;13742;49.306;8.636;2023-06-24T00:39:18;21.68;58.39
25945;SHT31;13742;49.306;8.636;2023-06-24T00:40:18;21.68;58.53
25945;SHT31;13742;49.306;8.636;2023-06-24T00:41:19;21.68;58.47
25945;SHT31;13742;49.306;8.636;2023-06-24T00:42:19;21.64;58.28
25945;SHT31;13742;49.306;8.636;2023-06-24T00:43:19;21.64;58.39
25945;SHT31;13742;49.306;8.636;2023-06-24T00:44:19;21.63;58.23
25945;SHT31;13742;49.306;8.636;2023-06-24T00:45:19;21.61;58.31
25945;SHT31;13742;49.306;8.636;2023-06-24T00:46:19;21.58;58.69
25945;SHT31;13742;49.306;8.636;2023-06-24T00:47:18;21.53;59.08
25945;SHT31;13742;49.306;8.636;2023-06-24T00:48:19;21.50;59.15
25945;SHT31;13742;49.306;8.636;2023-06-24T00:49:18;21.49;59.07
25945;SHT31;13742;49.306;8.636;2023-06-24T00:50:18;21.49;59.33
25945;SHT31;13742;49.306;8.636;2023-06-24T00:51:21;21.43;58.94
25945;SHT31;13742;49.306;8.636;2023-06-24T00:52:18;21.40;58.86
25945;SHT31;13742;49.306;8.636;2023-06-24T00:53:19;21.40;59.43
25945;SHT31;13742;49.306;8.636;2023-06-24T00:54:18;21.39;59.39
25945;SHT31;13742;49.306;8.636;2023-06-24T00:55:20;21.36;59.15
25945;SHT31;13742;49.306;8.636;2023-06-24T00:56:21;21.36;59.48
25945;SHT31;13742;49.306;8.636;2023-06-24T00:57:21;21.36;59.48
25945;SHT31;13742;49.306;8.636;2023-06-24T00:58:21;21.35;59.69
25945;SHT31;13742;49.306;8.636;2023-06-24T00:59:19;21.33;60.32
25945;SHT31;13742;49.306;8.636;2023-06-24T01:00:20;21.33;60.20
25945;SHT31;13742;49.306;8.636;2023-06-24T01:01:18;21.30;59.97
25945;SHT31;13742;49.306;8.636;2023-06-24T01:02:20;21.29;59.98
25945;SHT31;13742;49.306;8.636;2023-06-24T01:03:18;21.26;59.42
25945;SHT31;13742;49.306;8.636;2023-06-24T01:04:20;21.26;59.53
25945;SHT31;13742;49.306;8.636;2023-06-24T01:05:24;21.26;59.41
25945;SHT31;13742;49.306;8.636;2023-06-24T01:06:19;21.25;59.92
25945;SHT31;13742;49.306;8.636;2023-06-24T01:07:19;21.25;60.07
25945;SHT31;13742;49.306;8.636;2023-06-24T01:08:19;21.22;59.57
25945;SHT31;13742;49.306;8.636;2023-06-24T01:09:18;21.20;59.64
25945;SHT31;13742;49.306;8.636;2023-06-24T01:10:19;21.22;60.79
25945;SHT31;13742;49.306;8.636;2023-06-24T01:11:18;21.19;59.84
25945;SHT31;13742;49.306;8.636;2023-06-24T01:12:18;21.19;60.18
25945;SHT31;13742;49.306;8.636;2023-06-24T01:13:18;21.17;60.90
25945;SHT31;13742;49.306;8.636;2023-06-24T01:14:20;21.17;60.33
25945;SHT31;13742;49.306;8.636;2023-06-24T01:15:20;21.16;60.11
25945;SHT31;13742;49.306;8.636;2023-06-24T01:17:23;21.13;60.36
25945;SHT31;13742;49.306;8.636;2023-06-24T01:18:24;21.17;60.61
25945;SHT31;13742;49.306;8.636;2023-06-24T01:19:29;21.13;60.43
25945;SHT31;13742;49.306;8.636;2023-06-24T01:20:25;21.15;60.45
25945;SHT31;13742;49.306;8.636;2023-06-24T01:21:31;21.13;60.11
25945;SHT31;13742;49.306;8.636;2023-06-24T01:24:31;21.09;60.22
25945;SHT31;13742;49.306;8.636;2023-06-24T01:28:41;21.05;60.37
25945;SHT31;13742;49.306;8.636;2023-06-24T01:29:35;21.03;60.26
25945;SHT31;13742;49.306;8.636;2023-06-24T01:30:36;21.01;60.43
25945;SHT31;13742;49.306;8.636;2023-06-24T01:32:26;20.98;61.07
25945;SHT31;13742;49.306;8.636;2023-06-24T01:33:24;20.95;60.70
25945;SHT31;13742;49.306;8.636;2023-06-24T01:35:25;20.96;60.80
25945;SHT31;13742;49.306;8.636;2023-06-24T01:36:20;20.96;60.56
25945;SHT31;13742;49.306;8.636;2023-06-24T01:37:27;20.91;60.39
25945;SHT31;13742;49.306;8.636;2023-06-24T01:39:09;20.92;60.56
25945;SHT31;13742;49.306;8.636;2023-06-24T01:39:23;20.89;60.35
25945;SHT31;13742;49.306;8.636;2023-06-24T01:40:26;20.89;60.56
25945;SHT31;13742;49.306;8.636;2023-06-24T01:41:22;20.89;60.52
25945;SHT31;13742;49.306;8.636;2023-06-24T01:42:21;20.85;60.63
25945;SHT31;13742;49.306;8.636;2023-06-24T01:43:23;20.84;60.67
25945;SHT31;13742;49.306;8.636;2023-06-24T01:44:19;20.82;60.73
25945;SHT31;13742;49.306;8.636;2023-06-24T01:45:23;20.82;60.83
25945;SHT31;13742;49.306;8.636;2023-06-24T01:46:22;20.82;60.57
25945;SHT31;13742;49.306;8.636;2023-06-24T01:47:21;20.78;60.97
25945;SHT31;13742;49.306;8.636;2023-06-24T01:48:23;20.78;61.26
25945;SHT31;13742;49.306;8.636;2023-06-24T01:49:19;20.75;61.09
25945;SHT31;13742;49.306;8.636;2023-06-24T01:50:21;20.76;61.20
25945;SHT31;13742;49.306;8.636;2023-06-24T01:51:20;20.70;61.02
25945;SHT31;13742;49.306;8.636;2023-06-24T01:52:21;20.68;61.07
25945;SHT31;13742;49.306;8.636;2023-06-24T01:53:19;20.70;62.05
25945;SHT31;13742;49.306;8.636;2023-06-24T01:54:20;20.70;61.37
25945;SHT31;13742;49.306;8.636;2023-06-24T01:55:20;20.67;61.40
25945;SHT31;13742;49.306;8.636;2023-06-24T01:56:20;20.65;61.17
25945;SHT31;13742;49.306;8.636;2023-06-24T01:57:20;20.65;61.96
25945;SHT31;13742;49.306;8.636;2023-06-24T01:58:20;20.65;61.60
25945;SHT31;13742;49.306;8.636;2023-06-24T01:59:20;20.62;62.18
25945;SHT31;13742;49.306;8.636;2023-06-24T02:00:20;20.59;62.54
25945;SHT31;13742;49.306;8.636;2023-06-24T02:01:19;20.62;61.65
25945;SHT31;13742;49.306;8.636;2023-06-24T02:02:21;20.58;61.76
25945;SHT31;13742;49.306;8.636;2023-06-24T02:03:19;20.59;62.07
25945;SHT31;13742;49.306;8.636;2023-06-24T02:04:19;20.61;61.90
25945;SHT31;13742;49.306;8.636;2023-06-24T02:05:20;20.59;61.41
25945;SHT31;13742;49.306;8.636;2023-06-24T02:06:19;20.55;61.88
25945;SHT31;13742;49.306;8.636;2023-06-24T02:07:19;20.57;61.45
25945;SHT31;13742;49.306;8.636;2023-06-24T02:08:20;20.54;61.98
25945;SHT31;13742;49.306;8.636;2023-06-24T02:09:20;20.55;61.78
25945;SHT31;13742;49.306;8.636;2023-06-24T02:10:20;20.51;62.43
25945;SHT31;13742;49.306;8.636;2023-06-24T02:11:21;20.50;62.07
25945;SHT31;13742;49.306;8.636;2023-06-24T02:12:19;20.51;61.68
25945;SHT31;13742;49.306;8.636;2023-06-24T02:13:19;20.52;61.62
25945;SHT31;13742;49.306;8.636;2023-06-24T02:14:19;20.52;61.88
25945;SHT31;13742;49.306;8.636;2023-06-24T02:15:19;20.51;61.71
25945;SHT31;13742;49.306;8.636;2023-06-24T02:16:20;20.52;62.08
25945;SHT31;13742;49.306;8.636;2023-06-24T02:17:19;20.48;62.10
25945;SHT31;13742;49.306;8.636;2023-06-24T02:18:20;20.48;61.60
25945;SHT31;13742;49.306;8.636;2023-06-24T02:19:19;20.50;62.59
25945;SHT31;13742;49.306;8.636;2023-06-24T02:20:19;20.47;62.09
25945;SHT31;13742;49.306;8.636;2023-06-24T02:21:20;20.44;61.78
25945;SHT31;13742;49.306;8.636;2023-06-24T02:22:20;20.41;62.45
25945;SHT31;13742;49.306;8.636;2023-06-24T02:23:19;20.36;62.87
25945;SHT31;13742;49.306;8.636;2023-06-24T02:24:19;20.36;62.49
25945;SHT31;13742;49.306;8.636;2023-06-24T02:25:19;20.34;61.92
25945;SHT31;13742;49.306;8.636;2023-06-24T02:26:19;20.34;61.90
25945;SHT31;13742;49.306;8.636;2023-06-24T02:27:19;20.34;61.83
25945;SHT31;13742;49.306;8.636;2023-06-24T02:28:18;20.33;62.29
25945;SHT31;13742;49.306;8.636;2023-06-24T02:29:19;20.36;63.00
25945;SHT31;13742;49.306;8.636;2023-06-24T02:30:19;20.34;62.22
25945;SHT31;13742;49.306;8.636;2023-06-24T02:31:19;20.34;62.12
25945;SHT31;13742;49.306;8.636;2023-06-24T02:32:18;20.33;62.40
25945;SHT31;13742;49.306;8.636;2023-06-24T02:33:18;20.36;62.63
25945;SHT31;13742;49.306;8.636;2023-06-24T02:34:18;20.36;62.74
25945;SHT31;13742;49.306;8.636;2023-06-24T02:35:18;20.34;63.02
25945;SHT31;13742;49.306;8.636;2023-06-24T02:36:18;20.34;62.65
25945;SHT31;13742;49.306;8.636;2023-06-24T02:37:18;20.33;62.42
25945;SHT31;13742;49.306;8.636;2023-06-24T02:38:18;20.36;62.27
25945;SHT31;13742;49.306;8.636;2023-06-24T02:39:18;20.34;63.07
25945;SHT31;13742;49.306;8.636;2023-06-24T02:40:18;20.36;62.34
25945;SHT31;13742;49.306;8.636;2023-06-24T02:41:18;20.33;62.22
25945;SHT31;13742;49.306;8.636;2023-06-24T02:42:18;20.33;62.20
25945;SHT31;13742;49.306;8.636;2023-06-24T02:43:18;20.30;62.37
25945;SHT31;13742;49.306;8.636;2023-06-24T02:44:18;20.26;62.47
25945;SHT31;13742;49.306;8.636;2023-06-24T02:45:18;20.26;62.77
25945;SHT31;13742;49.306;8.636;2023-06-24T02:46:19;20.21;62.58
25945;SHT31;13742;49.306;8.636;2023-06-24T02:47:20;20.20;62.46
25945;SHT31;13742;49.306;8.636;2023-06-24T02:48:20;20.19;62.89
25945;SHT31;13742;49.306;8.636;2023-06-24T02:49:19;20.20;62.86
25945;SHT31;13742;49.306;8.636;2023-06-24T02:50:19;20.17;63.11
25945;SHT31;13742;49.306;8.636;2023-06-24T02:51:19;20.13;63.75
25945;SHT31;13742;49.306;8.636;2023-06-24T02:52:19;20.10;62.73
25945;SHT31;13742;49.306;8.636;2023-06-24T02:53:18;20.12;63.30
25945;SHT31;13742;49.306;8.636;2023-06-24T02:54:18;20.07;63.17
25945;SHT31;13742;49.306;8.636;2023-06-24T02:55:19;20.09;62.83
25945;SHT31;13742;49.306;8.636;2023-06-24T02:56:21;20.10;62.84
25945;SHT31;13742;49.306;8.636;2023-06-24T02:57:20;20.09;62.95
25945;SHT31;13742;49.306;8.636;2023-06-24T02:58:18;20.06;63.42
25945;SHT31;13742;49.306;8.636;2023-06-24T02:59:22;20.06;63.24
25945;SHT31;13742;49.306;8.636;2023-06-24T03:00:19;20.06;63.40
25945;SHT31;13742;49.306;8.636;2023-06-24T03:01:18;20.03;63.34
25945;SHT31;13742;49.306;8.636;2023-06-24T03:02:18;20.03;63.81
25945;SHT31;13742;49.306;8.636;2023-06-24T03:03:19;20.02;64.15
25945;SHT31;13742;49.306;8.636;2023-06-24T03:04:19;19.96;64.19
25945;SHT31;13742;49.306;8.636;2023-06-24T03:05:18;19.95;64.00
25945;SHT31;13742;49.306;8.636;2023-06-24T03:06:19;19.95;63.55
25945;SHT31;13742;49.306;8.636;2023-06-24T03:07:22;19.95;63.14
25945;SHT31;13742;49.306;8.636;2023-06-24T03:08:19;19.93;63.32
25945;SHT31;13742;49.306;8.636;2023-06-24T03:09:18;19.93;63.31
25945;SHT31;13742;49.306;8.636;2023-06-24T03:10:18;19.93;63.38
25945;SHT31;13742;49.306;8.636;2023-06-24T03:11:18;19.93;63.38
25945;SHT31;13742;49.306;8.636;2023-06-24T03:12:19;19.93;63.80
25945;SHT31;13742;49.306;8.636;2023-06-24T03:13:18;19.90;64.69
25945;SHT31;13742;49.306;8.636;2023-06-24T03:14:18;19.85;64.38
25945;SHT31;13742;49.306;8.636;2023-06-24T03:15:18;19.86;65.02
25945;SHT31;13742;49.306;8.636;2023-06-24T03:16:18;19.83;64.82
25945;SHT31;13742;49.306;8.636;2023-06-24T03:17:18;19.82;64.64
25945;SHT31;13742;49.306;8.636;2023-06-24T03:18:19;19.75;65.90
25945;SHT31;13742;49.306;8.636;2023-06-24T03:19:18;19.69;66.28
25945;SHT31;13742;49.306;8.636;2023-06-24T03:20:18;19.68;66.34
25945;SHT31;13742;49.306;8.636;2023-06-24T03:21:18;19.61;66.77
25945;SHT31;13742;49.306;8.636;2023-06-24T03:22:18;19.61;66.54
25945;SHT31;13742;49.306;8.636;2023-06-24T03:23:18;19.57;66.66
25945;SHT31;13742;49.306;8.636;2023-06-24T03:24:18;19.57;66.32
25945;SHT31;13742;49.306;8.636;2023-06-24T03:25:18;19.49;66.90
25945;SHT31;13742;49.306;8.636;2023-06-24T03:26:18;19.48;66.94
25945;SHT31;13742;49.306;8.636;2023-06-24T03:27:18;19.45;66.63
25945;SHT31;13742;49.306;8.636;2023-06-24T03:28:18;19.44;67.04
25945;SHT31;13742;49.306;8.636;2023-06-24T03:29:18;19.44;66.48
25945;SHT31;13742;49.306;8.636;2023-06-24T03:30:18;19.41;66.19
25945;SHT31;13742;49.306;8.636;2023-06-24T03:31:23;19.44;65.76
25945;SHT31;13742;49.306;8.636;2023-06-24T03:32:18;19.41;65.87
25945;SHT31;13742;49.306;8.636;2023-06-24T03:33:18;19.41;65.19
25945;SHT31;13742;49.306;8.636;2023-06-24T03:34:18;19.42;65.51
25945;SHT31;13742;49.306;8.636;2023-06-24T03:35:18;19.44;65.26
25945;SHT31;13742;49.306;8.636;2023-06-24T03:36:18;19.44;65.12
25945;SHT31;13742;49.306;8.636;2023-06-24T03:37:18;19.42;64.88
25945;SHT31;13742;49.306;8.636;2023-06-24T03:38:19;19.44;65.78
25945;SHT31;13742;49.306;8.636;2023-06-24T03:39:18;19.44;65.20
25945;SHT31;13742;49.306;8.636;2023-06-24T03:40:18;19.44;64.89
25945;SHT31;13742;49.306;8.636;2023-06-24T03:41:18;19.45;65.48
25945;SHT31;13742;49.306;8.636;2023-06-24T03:42:19;19.45;65.19
25945;SHT31;13742;49.306;8.636;2023-06-24T03:43:18;19.44;65.31
25945;SHT31;13742;49.306;8.636;2023-06-24T03:44:20;19.41;64.92
25945;SHT31;13742;49.306;8.636;2023-06-24T03:45:18;19.45;65.28
25945;SHT31;13742;49.306;8.636;2023-06-24T03:46:18;19.49;65.04
25945;SHT31;13742;49.306;8.636;2023-06-24T03:47:18;19.45;65.51
25945;SHT31;13742;49.306;8.636;2023-06-24T03:48:18;19.48;65.02
25945;SHT31;13742;49.306;8.636;2023-06-24T03:49:18;19.48;64.99
25945;SHT31;13742;49.306;8.636;2023-06-24T03:50:18;19.48;64.81
25945;SHT31;13742;49.306;8.636;2023-06-24T03:51:18;19.44;65.01
25945;SHT31;13742;49.306;8.636;2023-06-24T03:52:18;19.41;65.34
25945;SHT31;13742;49.306;8.636;2023-06-24T03:53:18;19.42;65.40
25945;SHT31;13742;49.306;8.636;2023-06-24T03:54:18;19.41;65.14
25945;SHT31;13742;49.306;8.636;2023-06-24T03:55:18;19.41;64.75
25945;SHT31;13742;49.306;8.636;2023-06-24T03:56:18;19.38;64.94
25945;SHT31;13742;49.306;8.636;2023-06-24T03:57:18;19.35;64.77
25945;SHT31;13742;49.306;8.636;2023-06-24T03:58:21;19.35;64.64
25945;SHT31;13742;49.306;8.636;2023-06-24T03:59:18;19.31;64.47
25945;SHT31;13742;49.306;8.636;2023-06-24T04:00:20;19.37;65.54
25945;SHT31;13742;49.306;8.636;2023-06-24T04:01:19;19.37;65.40
25945;SHT31;13742;49.306;8.636;2023-06-24T04:02:18;19.37;64.95
25945;SHT31;13742;49.306;8.636;2023-06-24T04:03:18;19.37;64.72
25945;SHT31;13742;49.306;8.636;2023-06-24T04:04:18;19.37;64.76
25945;SHT31;13742;49.306;8.636;2023-06-24T04:05:20;19.33;65.70
25945;SHT31;13742;49.306;8.636;2023-06-24T04:06:18;19.34;65.06
25945;SHT31;13742;49.306;8.636;2023-06-24T04:07:27;19.31;65.21
25945;SHT31;13742;49.306;8.636;2023-06-24T04:08:18;19.28;64.98
25945;SHT31;13742;49.306;8.636;2023-06-24T04:09:18;19.26;65.45
25945;SHT31;13742;49.306;8.636;2023-06-24T04:10:19;19.27;65.64
25945;SHT31;13742;49.306;8.636;2023-06-24T04:11:18;19.24;65.34
25945;SHT31;13742;49.306;8.636;2023-06-24T04:12:18;19.21;65.39
25945;SHT31;13742;49.306;8.636;2023-06-24T04:13:18;19.23;65.60
25945;SHT31;13742;49.306;8.636;2023-06-24T04:14:18;19.21;65.60
25945;SHT31;13742;49.306;8.636;2023-06-24T04:15:18;19.21;65.58
25945;SHT31;13742;49.306;8.636;2023-06-24T04:16:18;19.18;65.44
25945;SHT31;13742;49.306;8.636;2023-06-24T04:17:19;19.18;65.88
25945;SHT31;13742;49.306;8.636;2023-06-24T04:18:19;19.17;65.78
25945;SHT31;13742;49.306;8.636;2023-06-24T04:19:18;19.14;66.07
25945;SHT31;13742;49.306;8.636;2023-06-24T04:20:18;19.14;65.95
25945;SHT31;13742;49.306;8.636;2023-06-24T04:21:18;19.15;65.92
25945;SHT31;13742;49.306;8.636;2023-06-24T04:22:18;19.15;65.86
25945;SHT31;13742;49.306;8.636;2023-06-24T04:23:18;19.17;66.36
25945;SHT31;13742;49.306;8.636;2023-06-24T04:24:18;19.17;66.14
25945;SHT31;13742;49.306;8.636;2023-06-24T04:25:18;19.13;66.27
25945;SHT31;13742;49.306;8.636;2023-06-24T04:26:19;19.08;65.88
25945;SHT31;13742;49.306;8.636;2023-06-24T04:27:18;19.10;66.12
25945;SHT31;13742;49.306;8.636;2023-06-24T04:28:18;19.10;65.79
25945;SHT31;13742;49.306;8.636;2023-06-24T04:29:18;19.08;66.23
25945;SHT31;13742;49.306;8.636;2023-06-24T04:30:18;19.08;65.84
25945;SHT31;13742;49.306;8.636;2023-06-24T04:31:18;19.07;65.73
25945;SHT31;13742;49.306;8.636;2023-06-24T04:32:18;19.07;66.12
25945;SHT31;13742;49.306;8.636;2023-06-24T04:33:18;19.06;66.16
25945;SHT31;13742;49.306;8.636;2023-06-24T04:34:18;19.06;65.79
25945;SHT31;13742;49.306;8.636;2023-06-24T04:35:18;19.06;65.59
25945;SHT31;13742;49.306;8.636;2023-06-24T04:36:18;19.07;65.74
25945;SHT31;13742;49.306;8.636;2023-06-24T04:37:18;19.07;65.68
25945;SHT31;13742;49.306;8.636;2023-06-24T04:38:18;19.08;66.21
25945;SHT31;13742;49.306;8.636;2023-06-24T04:39:18;19.08;65.90
25945;SHT31;13742;49.306;8.636;2023-06-24T04:40:19;19.10;66.00
25945;SHT31;13742;49.306;8.636;2023-06-24T04:41:19;19.11;66.17
25945;SHT31;13742;49.306;8.636;2023-06-24T04:42:18;19.10;66.15
25945;SHT31;13742;49.306;8.636;2023-06-24T04:43:18;19.10;66.32
25945;SHT31;13742;49.306;8.636;2023-06-24T04:44:20;19.10;65.91
25945;SHT31;13742;49.306;8.636;2023-06-24T04:45:18;19.11;65.78
25945;SHT31;13742;49.306;8.636;2023-06-24T04:46:18;19.13;66.14
25945;SHT31;13742;49.306;8.636;2023-06-24T04:47:18;19.11;65.96
25945;SHT31;13742;49.306;8.636;2023-06-24T04:48:18;19.13;66.49
25945;SHT31;13742;49.306;8.636;2023-06-24T04:49:18;19.11;66.28
25945;SHT31;13742;49.306;8.636;2023-06-24T04:50:18;19.08;66.76
25945;SHT31;13742;49.306;8.636;2023-06-24T04:51:18;19.07;67.13
25945;SHT31;13742;49.306;8.636;2023-06-24T04:52:18;19.06;66.42
25945;SHT31;13742;49.306;8.636;2023-06-24T04:53:18;19.06;66.72
25945;SHT31;13742;49.306;8.636;2023-06-24T04:54:18;19.07;66.95
25945;SHT31;13742;49.306;8.636;2023-06-24T04:55:19;19.06;66.65
25945;SHT31;13742;49.306;8.636;2023-06-24T04:56:18;19.07;66.61
25945;SHT31;13742;49.306;8.636;2023-06-24T04:57:25;19.07;67.05
25945;SHT31;13742;49.306;8.636;2023-06-24T04:58:18;19.07;66.82
25945;SHT31;13742;49.306;8.636;2023-06-24T04:59:18;19.07;66.57
25945;SHT31;13742;49.306;8.636;2023-06-24T05:00:18;19.10;66.69
25945;SHT31;13742;49.306;8.636;2023-06-24T05:01:18;19.08;66.78
25945;SHT31;13742;49.306;8.636;2023-06-24T05:02:18;19.08;66.30
25945;SHT31;13742;49.306;8.636;2023-06-24T05:03:18;19.13;66.92
25945;SHT31;13742;49.306;8.636;2023-06-24T05:04:18;19.14;67.18
25945;SHT31;13742;49.306;8.636;2023-06-24T05:05:20;19.15;67.27
25945;SHT31;13742;49.306;8.636;2023-06-24T05:06:18;19.14;67.31
25945;SHT31;13742;49.306;8.636;2023-06-24T05:07:19;19.13;67.21
25945;SHT31;13742;49.306;8.636;2023-06-24T05:08:18;19.13;67.34
25945;SHT31;13742;49.306;8.636;2023-06-24T05:09:18;19.17;67.20
25945;SHT31;13742;49.306;8.636;2023-06-24T05:10:18;19.14;67.20
25945;SHT31;13742;49.306;8.636;2023-06-24T05:11:18;19.14;67.12
25945;SHT31;13742;49.306;8.636;2023-06-24T05:12:18;19.20;67.26
25945;SHT31;13742;49.306;8.636;2023-06-24T05:13:18;19.17;67.11
25945;SHT31;13742;49.306;8.636;2023-06-24T05:14:18;19.17;67.21
25945;SHT31;13742;49.306;8.636;2023-06-24T05:15:18;19.20;67.35
25945;SHT31;13742;49.306;8.636;2023-06-24T05:16:18;19.21;67.28
25945;SHT31;13742;49.306;8.636;2023-06-24T05:17:19;19.23;67.03
25945;SHT31;13742;49.306;8.636;2023-06-24T05:18:18;19.20;67.26
25945;SHT31;13742;49.306;8.636;2023-06-24T05:19:18;19.21;67.23
25945;SHT31;13742;49.306;8.636;2023-06-24T05:20:18;19.27;66.89
25945;SHT31;13742;49.306;8.636;2023-06-24T05:21:18;19.26;67.01
25945;SHT31;13742;49.306;8.636;2023-06-24T05:22:18;19.28;66.74
25945;SHT31;13742;49.306;8.636;2023-06-24T05:23:18;19.33;67.35
25945;SHT31;13742;49.306;8.636;2023-06-24T05:24:18;19.35;67.27
25945;SHT31;13742;49.306;8.636;2023-06-24T05:25:18;19.37;66.74
25945;SHT31;13742;49.306;8.636;2023-06-24T05:26:18;19.37;67.19
25945;SHT31;13742;49.306;8.636;2023-06-24T05:27:18;19.39;66.48
25945;SHT31;13742;49.306;8.636;2023-06-24T05:28:18;19.41;66.98
25945;SHT31;13742;49.306;8.636;2023-06-24T05:29:18;19.42;66.78
25945;SHT31;13742;49.306;8.636;2023-06-24T05:30:18;19.47;66.45
25945;SHT31;13742;49.306;8.636;2023-06-24T05:31:18;19.51;66.36
25945;SHT31;13742;49.306;8.636;2023-06-24T05:32:20;19.51;67.36
25945;SHT31;13742;49.306;8.636;2023-06-24T05:33:18;19.52;66.59
25945;SHT31;13742;49.306;8.636;2023-06-24T05:34:18;19.55;66.56
25945;SHT31;13742;49.306;8.636;2023-06-24T05:35:18;19.59;66.53
25945;SHT31;13742;49.306;8.636;2023-06-24T05:36:18;19.59;66.95
25945;SHT31;13742;49.306;8.636;2023-06-24T05:37:18;19.64;66.85
25945;SHT31;13742;49.306;8.636;2023-06-24T05:38:18;19.66;66.76
25945;SHT31;13742;49.306;8.636;2023-06-24T05:39:19;19.69;67.26
25945;SHT31;13742;49.306;8.636;2023-06-24T05:40:18;19.72;66.92
25945;SHT31;13742;49.306;8.636;2023-06-24T05:41:18;19.73;66.44
25945;SHT31;13742;49.306;8.636;2023-06-24T05:42:18;19.76;66.27
25945;SHT31;13742;49.306;8.636;2023-06-24T05:43:18;19.75;66.13
25945;SHT31;13742;49.306;8.636;2023-06-24T05:44:20;19.78;65.89
25945;SHT31;13742;49.306;8.636;2023-06-24T05:45:18;19.79;65.81
25945;SHT31;13742;49.306;8.636;2023-06-24T05:46:18;19.80;65.51
25945;SHT31;13742;49.306;8.636;2023-06-24T05:47:18;19.80;65.70
25945;SHT31;13742;49.306;8.636;2023-06-24T05:48:18;19.86;65.50
25945;SHT31;13742;49.306;8.636;2023-06-24T05:49:18;19.86;65.21
25945;SHT31;13742;49.306;8.636;2023-06-24T05:50:18;19.87;65.02
25945;SHT31;13742;49.306;8.636;2023-06-24T05:51:18;19.95;64.99
25945;SHT31;13742;49.306;8.636;2023-06-24T05:52:18;19.92;64.90
25945;SHT31;13742;49.306;8.636;2023-06-24T05:53:19;19.95;64.46
25945;SHT31;13742;49.306;8.636;2023-06-24T05:54:18;19.95;64.43
25945;SHT31;13742;49.306;8.636;2023-06-24T05:55:18;19.96;64.44
25945;SHT31;13742;49.306;8.636;2023-06-24T05:56:19;19.99;64.33
25945;SHT31;13742;49.306;8.636;2023-06-24T05:57:18;20.02;64.27
25945;SHT31;13742;49.306;8.636;2023-06-24T05:58:18;20.03;64.20
25945;SHT31;13742;49.306;8.636;2023-06-24T05:59:18;20.06;64.27
25945;SHT31;13742;49.306;8.636;2023-06-24T06:00:18;20.07;64.24
25945;SHT31;13742;49.306;8.636;2023-06-24T06:01:18;20.09;64.10
25945;SHT31;13742;49.306;8.636;2023-06-24T06:02:18;20.09;63.91
25945;SHT31;13742;49.306;8.636;2023-06-24T06:03:18;20.12;63.78
25945;SHT31;13742;49.306;8.636;2023-06-24T06:04:18;20.12;63.79
25945;SHT31;13742;49.306;8.636;2023-06-24T06:05:18;20.15;63.53
25945;SHT31;13742;49.306;8.636;2023-06-24T06:06:18;20.15;63.62
25945;SHT31;13742;49.306;8.636;2023-06-24T06:07:18;20.16;63.53
25945;SHT31;13742;49.306;8.636;2023-06-24T06:08:18;20.17;63.63
25945;SHT31;13742;49.306;8.636;2023-06-24T06:09:18;20.20;63.58
25945;SHT31;13742;49.306;8.636;2023-06-24T06:10:18;20.23;63.58
25945;SHT31;13742;49.306;8.636;2023-06-24T06:11:18;20.24;63.51
25945;SHT31;13742;49.306;8.636;2023-06-24T06:12:18;20.26;63.31
25945;SHT31;13742;49.306;8.636;2023-06-24T06:13:18;20.26;63.64
25945;SHT31;13742;49.306;8.636;2023-06-24T06:14:18;20.27;63.24
25945;SHT31;13742;49.306;8.636;2023-06-24T06:15:19;20.30;63.37
25945;SHT31;13742;49.306;8.636;2023-06-24T06:16:18;20.31;63.66
25945;SHT31;13742;49.306;8.636;2023-06-24T06:17:18;20.33;63.62
25945;SHT31;13742;49.306;8.636;2023-06-24T06:18:18;20.37;63.67
25945;SHT31;13742;49.306;8.636;2023-06-24T06:19:18;20.38;63.62
25945;SHT31;13742;49.306;8.636;2023-06-24T06:20:18;20.41;63.44
25945;SHT31;13742;49.306;8.636;2023-06-24T06:21:18;20.41;63.36
25945;SHT31;13742;49.306;8.636;2023-06-24T06:22:18;20.43;63.30
25945;SHT31;13742;49.306;8.636;2023-06-24T06:23:18;20.41;63.25
25945;SHT31;13742;49.306;8.636;2023-06-24T06:24:18;20.46;63.65
25945;SHT31;13742;49.306;8.636;2023-06-24T06:25:18;20.46;63.08
25945;SHT31;13742;49.306;8.636;2023-06-24T06:26:18;20.47;63.63